createdAt,value
2018-12-24T00:01:04.457Z,99432.13
2018-12-24T00:03:40.819Z,99424.00
2018-12-24T00:06:14.170Z,99435.83
2018-12-24T00:08:50.461Z,99450.92
2018-12-24T00:11:26.109Z,99458.59
2018-12-24T00:13:59.915Z,99468.30
2018-12-24T00:16:36.617Z,99466.93
2018-12-24T00:19:14.043Z,99471.94
2018-12-24T00:21:49.383Z,99445.25
2018-12-24T00:24:28.390Z,99431.37
2018-12-24T00:27:05.251Z,99432.42
2018-12-24T00:29:45.407Z,99428.42
2018-12-24T00:32:20.115Z,99433.39
2018-12-24T00:34:56.330Z,99432.97
2018-12-24T00:37:29.744Z,99434.67
2018-12-24T00:40:02.540Z,99434.67
2018-12-24T00:42:40.863Z,99430.92
2018-12-24T00:45:14.290Z,99421.61
2018-12-24T00:47:48.991Z,99422.86
2018-12-24T00:50:22.434Z,99415.02
2018-12-24T00:52:56.554Z,99412.88
2018-12-24T00:55:31.517Z,99410.86
2018-12-24T00:58:06.147Z,99410.50
2018-12-24T01:00:41.710Z,99406.42
2018-12-24T01:03:17.462Z,99408.55
2018-12-24T01:05:50.158Z,99411.19
2018-12-24T01:08:24.045Z,99409.58
2018-12-24T01:10:59.348Z,99408.95
2018-12-24T01:13:32.755Z,99409.00
2018-12-24T01:16:06.941Z,99399.52
2018-12-24T01:18:42.065Z,99394.31
2018-12-24T01:21:17.557Z,99401.16
2018-12-24T01:23:51.116Z,99398.67
2018-12-24T01:26:26.098Z,99400.94
2018-12-24T01:28:59.968Z,99410.30
2018-12-24T01:31:36.108Z,99406.21
2018-12-24T01:34:12.357Z,99400.78
2018-12-24T01:36:47.173Z,99394.88
2018-12-24T01:39:20.877Z,99385.91
2018-12-24T01:41:56.483Z,99395.97
2018-12-24T01:44:32.028Z,99395.63
2018-12-24T01:47:08.870Z,99391.43
2018-12-24T01:49:44.722Z,99392.27
2018-12-24T01:52:20.197Z,99382.63
2018-12-24T01:54:55.116Z,99389.75
2018-12-24T01:57:30.166Z,99383.45
2018-12-24T02:00:05.092Z,99375.79
2018-12-24T02:02:40.327Z,99376.89
2018-12-24T02:05:14.450Z,99377.73
2018-12-24T02:07:48.524Z,99377.34
2018-12-24T02:10:22.451Z,99373.73
2018-12-24T02:12:57.226Z,99375.97
2018-12-24T02:15:36.154Z,99389.14
2018-12-24T02:18:13.462Z,99391.44
2018-12-24T02:20:46.672Z,99385.02
2018-12-24T02:23:20.765Z,99385.56
2018-12-24T02:25:55.839Z,99384.71
2018-12-24T02:28:31.346Z,99386.86
2018-12-24T02:31:03.995Z,99373.08
2018-12-24T02:33:37.389Z,99370.80
2018-12-24T02:36:10.492Z,99360.84
2018-12-24T02:38:44.960Z,99362.31
2018-12-24T02:41:21.179Z,99350.75
2018-12-24T02:43:54.085Z,99348.92
2018-12-24T02:46:28.862Z,99347.19
2018-12-24T02:49:04.054Z,99343.06
2018-12-24T02:51:38.084Z,99336.41
2018-12-24T02:54:12.856Z,99329.06
2018-12-24T02:56:45.202Z,99320.05
2018-12-24T02:59:19.651Z,99316.16
2018-12-24T03:01:54.578Z,99313.42
2018-12-24T03:04:29.476Z,99316.30
2018-12-24T03:07:03.036Z,99320.61
2018-12-24T03:09:37.360Z,99323.97
2018-12-24T03:12:13.833Z,99320.83
2018-12-24T03:14:49.226Z,99309.22
2018-12-24T03:17:23.750Z,99299.44
2018-12-24T03:19:58.169Z,99290.42
2018-12-24T03:22:37.040Z,99290.56
2018-12-24T03:25:11.911Z,99292.08
2018-12-24T03:27:45.295Z,99291.77
2018-12-24T03:30:21.472Z,99292.84
2018-12-24T03:32:56.094Z,99290.63
2018-12-24T03:35:34.162Z,99288.65
2018-12-24T03:38:08.206Z,99292.15
2018-12-24T03:40:41.095Z,99288.48
2018-12-24T03:43:16.673Z,99293.38
2018-12-24T03:45:49.457Z,99261.42
2018-12-24T03:48:24.650Z,99253.79
2018-12-24T03:51:00.542Z,99242.15
2018-12-24T03:53:33.522Z,99236.58
2018-12-24T03:56:12.122Z,99231.20
2018-12-24T03:58:47.905Z,99221.04
2018-12-24T04:01:23.731Z,99233.45
2018-12-24T04:04:08.239Z,99227.31
2018-12-24T04:06:47.105Z,99230.76
2018-12-24T04:09:22.198Z,99229.38
2018-12-24T04:11:57.689Z,99228.23
2018-12-24T04:14:34.664Z,99229.69
2018-12-24T04:17:08.587Z,99212.56
2018-12-24T04:19:43.965Z,99214.41
2018-12-24T04:22:19.127Z,99205.08
2018-12-24T04:24:57.800Z,99210.45
2018-12-24T04:27:31.293Z,99201.72
2018-12-24T04:30:05.643Z,99201.58
2018-12-24T04:32:40.386Z,99200.05
2018-12-24T04:35:17.146Z,99198.36
2018-12-24T04:37:51.563Z,99195.22
2018-12-24T04:40:26.819Z,99197.77
2018-12-24T04:43:01.114Z,99197.45
2018-12-24T04:45:34.417Z,99188.50
2018-12-24T04:48:09.058Z,99184.60
2018-12-24T04:50:43.018Z,99180.25
2018-12-24T04:53:17.318Z,99179.49
2018-12-24T04:55:51.437Z,99184.16
2018-12-24T04:58:26.759Z,99178.33
2018-12-24T05:01:02.682Z,99173.36
2018-12-24T05:03:40.318Z,99169.91
2018-12-24T05:06:16.108Z,99169.38
2018-12-24T05:08:52.611Z,99166.09
2018-12-24T05:11:27.089Z,99163.50
2018-12-24T05:14:05.393Z,99160.36
2018-12-24T05:16:39.180Z,99154.41
2018-12-24T05:19:15.202Z,99153.81
2018-12-24T05:21:51.155Z,99164.44
2018-12-24T05:24:24.923Z,99171.02
2018-12-24T05:27:00.467Z,99163.98
2018-12-24T05:29:35.417Z,99160.14
2018-12-24T05:32:09.295Z,99160.14
2018-12-24T05:34:44.681Z,99162.74
2018-12-24T05:37:19.727Z,99159.24
2018-12-24T05:39:57.999Z,99162.61
2018-12-24T05:42:36.554Z,99157.55
2018-12-24T05:45:10.201Z,99153.28
2018-12-24T05:47:55.289Z,99145.13
2018-12-24T05:50:29.204Z,99140.75
2018-12-24T05:53:03.830Z,99137.87
2018-12-24T05:55:37.532Z,99137.25
2018-12-24T05:58:10.988Z,99132.73
2018-12-24T06:00:45.024Z,99139.63
2018-12-24T06:03:19.784Z,99138.60
2018-12-24T06:05:53.284Z,99135.81
2018-12-24T06:08:27.442Z,99140.06
2018-12-24T06:11:03.471Z,99139.70
2018-12-24T06:13:39.461Z,99135.41
2018-12-24T06:16:13.634Z,99132.91
2018-12-24T06:18:50.136Z,99134.56
2018-12-24T06:21:24.159Z,99134.20
2018-12-24T06:24:00.861Z,99117.37
2018-12-24T06:26:35.031Z,99122.42
2018-12-24T06:29:13.577Z,99112.48
2018-12-24T06:31:49.238Z,99109.35
2018-12-24T06:34:26.538Z,99110.34
2018-12-24T06:37:02.526Z,99099.41
2018-12-24T06:39:43.837Z,99103.14
2018-12-24T06:42:18.297Z,99098.52
2018-12-24T06:44:53.225Z,99101.34
2018-12-24T06:47:26.826Z,99104.02
2018-12-24T06:50:03.174Z,99102.08
2018-12-24T06:52:37.827Z,99103.78
2018-12-24T06:55:14.712Z,99108.98
2018-12-24T06:57:51.572Z,99102.01
2018-12-24T07:00:26.631Z,99098.89
2018-12-24T07:03:05.890Z,99088.55
2018-12-24T07:05:40.080Z,99087.64
2018-12-24T07:08:17.991Z,99089.14
2018-12-24T07:10:52.221Z,99096.22
2018-12-24T07:13:25.538Z,99097.18
2018-12-24T07:15:59.745Z,99091.63
2018-12-24T07:18:35.132Z,99099.09
2018-12-24T07:21:09.968Z,99105.70
2018-12-24T07:23:45.582Z,99110.05
2018-12-24T07:26:19.369Z,99112.61
2018-12-24T07:28:58.984Z,99103.84
2018-12-24T07:31:30.460Z,99103.66
2018-12-24T07:34:06.620Z,99098.10
2018-12-24T07:36:42.152Z,99098.89
2018-12-24T07:39:15.661Z,99110.55
2018-12-24T07:41:50.917Z,99110.11
2018-12-24T07:44:25.387Z,99104.51
2018-12-24T07:47:03.866Z,99106.11
2018-12-24T07:49:37.074Z,99109.48
2018-12-24T07:52:13.751Z,99103.52
2018-12-24T07:54:50.016Z,99098.89
2018-12-24T07:57:24.384Z,99100.00
2018-12-24T07:59:59.763Z,99102.53
2018-12-24T08:02:36.820Z,99099.36
2018-12-24T08:05:09.546Z,99095.95
2018-12-24T08:07:44.221Z,99093.14
2018-12-24T08:10:20.016Z,99096.48
2018-12-24T08:12:55.181Z,99095.19
2018-12-24T08:15:32.429Z,99089.05
2018-12-24T08:18:08.909Z,99080.28
2018-12-24T08:20:47.463Z,99080.12
2018-12-24T08:23:22.861Z,99087.28
2018-12-24T08:25:57.642Z,99084.22
2018-12-24T08:28:32.721Z,99084.41
2018-12-24T08:31:07.277Z,99078.23
2018-12-24T08:33:43.028Z,99083.47
2018-12-24T08:36:19.967Z,99084.38
2018-12-24T08:38:54.069Z,99092.95
2018-12-24T08:41:27.900Z,99094.08
2018-12-24T08:44:03.943Z,99090.52
2018-12-24T08:46:38.756Z,99104.48
2018-12-24T08:49:14.218Z,99104.59
2018-12-24T08:51:51.680Z,99096.66
2018-12-24T08:54:26.047Z,99087.99
2018-12-24T08:57:00.725Z,99086.58
2018-12-24T08:59:39.308Z,99091.06
2018-12-24T09:02:17.716Z,99099.34
2018-12-24T09:04:52.053Z,99116.10
2018-12-24T09:07:28.133Z,99132.97
2018-12-24T09:10:03.719Z,99141.60
2018-12-24T09:12:40.559Z,99147.06
2018-12-24T09:15:15.301Z,99131.16
2018-12-24T09:17:50.630Z,99111.75
2018-12-24T09:20:28.126Z,99109.77
2018-12-24T09:23:01.979Z,99107.81
2018-12-24T09:25:38.263Z,99104.27
2018-12-24T09:28:14.977Z,99115.22
2018-12-24T09:30:59.491Z,99098.43
2018-12-24T09:33:36.414Z,99092.16
2018-12-24T09:36:13.113Z,99070.67
2018-12-24T09:38:55.142Z,99067.55
2018-12-24T09:41:32.966Z,99067.44
2018-12-24T09:44:10.218Z,99075.33
2018-12-24T09:46:49.686Z,99073.59
2018-12-24T09:49:25.278Z,99079.16
2018-12-24T09:52:02.532Z,99076.74
2018-12-24T09:54:38.594Z,99083.80
2018-12-24T09:57:16.109Z,99083.68
2018-12-24T09:59:57.006Z,99083.41
2018-12-24T10:02:45.682Z,99070.52
2018-12-24T10:05:26.761Z,99064.67
2018-12-24T10:08:04.859Z,99040.80
2018-12-24T10:10:48.255Z,99039.47
2018-12-24T10:13:25.517Z,99051.98
2018-12-24T10:16:01.688Z,99058.38
2018-12-24T10:18:47.216Z,99080.16
2018-12-24T10:21:24.405Z,99058.58
2018-12-24T10:23:59.645Z,99035.84
2018-12-24T10:26:35.544Z,99011.32
2018-12-24T10:29:11.111Z,99003.02
2018-12-24T10:31:47.775Z,99005.24
2018-12-24T10:34:25.357Z,99022.15
2018-12-24T10:37:10.753Z,99038.14
2018-12-24T10:39:47.335Z,99051.81
2018-12-24T10:42:22.910Z,99056.37
2018-12-24T10:45:00.723Z,99043.84
2018-12-24T10:47:37.909Z,99042.14
2018-12-24T10:50:20.695Z,99035.86
2018-12-24T10:52:55.608Z,99028.33
2018-12-24T10:55:31.042Z,99017.37
2018-12-24T10:58:06.023Z,99002.72
2018-12-24T11:00:45.581Z,98999.92
2018-12-24T11:03:25.270Z,98976.33
2018-12-24T11:05:58.816Z,98966.93
2018-12-24T11:08:33.474Z,98963.31
2018-12-24T11:11:08.621Z,98967.50
2018-12-24T11:13:45.672Z,98975.23
2018-12-24T11:16:19.907Z,98968.23
2018-12-24T11:18:53.381Z,98971.34
2018-12-24T11:21:28.226Z,98975.67
2018-12-24T11:24:01.540Z,98967.57
2018-12-24T11:26:42.005Z,98942.27
2018-12-24T11:29:16.279Z,98917.28
2018-12-24T11:31:52.385Z,98933.53
2018-12-24T11:34:25.865Z,98934.97
2018-12-24T11:37:00.096Z,98921.37
2018-12-24T11:39:37.290Z,98927.80
2018-12-24T11:42:11.251Z,98932.72
2018-12-24T11:44:55.538Z,98923.51
2018-12-24T11:47:30.848Z,98912.65
2018-12-24T11:50:06.579Z,98918.51
2018-12-24T11:52:41.408Z,98910.41
2018-12-24T11:55:20.588Z,98891.60
2018-12-24T11:57:57.450Z,98893.97
2018-12-24T12:00:33.302Z,98897.55
2018-12-24T12:03:05.666Z,98911.97
2018-12-24T12:05:41.399Z,98911.48
2018-12-24T12:08:17.102Z,98903.03
2018-12-24T12:10:55.989Z,98904.93
2018-12-24T12:13:32.280Z,98892.78
2018-12-24T12:16:11.700Z,98892.95
2018-12-24T12:18:48.136Z,98883.13
2018-12-24T12:21:42.007Z,98874.55
2018-12-24T12:24:18.066Z,98858.80
2018-12-24T12:27:01.935Z,98862.86
2018-12-24T12:29:37.807Z,98845.11
2018-12-24T12:32:15.414Z,98844.28
2018-12-24T12:34:54.732Z,98850.34
2018-12-24T12:37:29.307Z,98848.28
2018-12-24T12:40:04.109Z,98858.95
2018-12-24T12:42:39.199Z,98856.47
2018-12-24T12:45:15.137Z,98865.44
2018-12-24T12:47:54.723Z,98882.46
2018-12-24T12:50:31.500Z,98885.11
2018-12-24T12:53:06.568Z,98888.55
2018-12-24T12:55:41.535Z,98885.02
2018-12-24T12:58:16.424Z,98883.06
2018-12-24T13:00:54.031Z,98892.02
2018-12-24T13:03:29.780Z,98892.59
2018-12-24T13:06:08.146Z,98874.31
2018-12-24T13:08:42.691Z,98882.93
2018-12-24T13:11:19.532Z,98891.41
2018-12-24T13:13:59.509Z,98890.36
2018-12-24T13:16:36.056Z,98889.92
2018-12-24T13:19:10.633Z,98876.94
2018-12-24T13:21:46.214Z,98873.95
2018-12-24T13:24:20.738Z,98883.13
2018-12-24T13:26:58.789Z,98888.74
2018-12-24T13:29:35.892Z,98884.43
2018-12-24T13:32:17.552Z,98874.55
2018-12-24T13:34:53.316Z,98878.73
2018-12-24T13:37:28.877Z,98875.84
2018-12-24T13:40:01.100Z,98870.86
2018-12-24T13:42:32.883Z,98864.42
2018-12-24T13:45:05.026Z,98863.59
2018-12-24T13:47:37.434Z,98862.98
2018-12-24T13:50:09.794Z,98870.14
2018-12-24T13:52:41.932Z,98884.80
2018-12-24T13:55:13.795Z,98890.53
2018-12-24T13:57:45.720Z,98892.29
2018-12-24T14:00:17.901Z,98898.25
2018-12-24T14:02:50.014Z,98902.90
2018-12-24T14:05:21.724Z,98910.52
2018-12-24T14:07:53.298Z,98912.80
2018-12-24T14:10:25.362Z,98910.20
2018-12-24T14:12:57.414Z,98907.80
2018-12-24T14:15:29.414Z,98911.73
2018-12-24T14:18:01.613Z,98913.05
2018-12-24T14:20:35.217Z,98907.09
2018-12-24T14:23:07.250Z,98901.35
2018-12-24T14:25:39.339Z,98895.99
2018-12-24T14:28:11.459Z,98887.30
2018-12-24T14:30:43.489Z,98884.67
2018-12-24T14:33:16.174Z,98888.61
2018-12-24T14:35:48.937Z,98882.89
2018-12-24T14:38:20.652Z,98889.22
2018-12-24T14:40:53.115Z,98886.00
2018-12-24T14:43:25.432Z,98884.91
2018-12-24T14:45:57.067Z,98888.74
2018-12-24T14:48:28.658Z,98886.93
2018-12-24T14:51:00.470Z,98896.96
2018-12-24T14:53:32.548Z,98908.89
2018-12-24T14:56:04.342Z,98902.80
2018-12-24T14:58:37.140Z,98903.50
2018-12-24T15:01:09.711Z,98912.22
2018-12-24T15:03:41.560Z,98922.58
2018-12-24T15:06:13.669Z,98912.44
2018-12-24T15:08:45.745Z,98916.25
2018-12-24T15:11:17.664Z,98916.84
2018-12-24T15:13:50.118Z,98918.87
2018-12-24T15:16:21.935Z,98903.50
2018-12-24T15:18:53.844Z,98901.09
2018-12-24T15:21:25.677Z,98891.09
2018-12-24T15:23:58.140Z,98888.55
2018-12-24T15:26:30.764Z,98880.32
2018-12-24T15:29:03.482Z,98872.13
2018-12-24T15:31:35.338Z,98866.00
2018-12-24T15:34:07.601Z,98866.19
2018-12-24T15:36:39.343Z,98867.67
2018-12-24T15:39:11.436Z,98859.41
2018-12-24T15:41:43.452Z,98859.10
2018-12-24T15:44:15.666Z,98858.36
2018-12-24T15:46:47.588Z,98864.61
2018-12-24T15:49:19.666Z,98877.72
2018-12-24T15:51:51.658Z,98880.39
2018-12-24T15:54:23.861Z,98883.90
2018-12-24T15:56:55.726Z,98876.76
2018-12-24T15:59:28.476Z,98877.95
2018-12-24T16:02:02.159Z,98873.97
2018-12-24T16:04:33.955Z,98881.41
2018-12-24T16:07:05.714Z,98882.19
2018-12-24T16:09:37.697Z,98878.03
2018-12-24T16:12:09.709Z,98886.38
2018-12-24T16:14:41.598Z,98882.08
2018-12-24T16:17:13.272Z,98886.38
2018-12-24T16:19:45.387Z,98882.02
2018-12-24T16:22:17.320Z,98887.97
2018-12-24T16:24:49.258Z,98898.29
2018-12-24T16:27:21.566Z,98888.81
2018-12-24T16:29:54.197Z,98893.27
2018-12-24T16:32:26.938Z,98902.00
2018-12-24T16:34:58.830Z,98902.70
2018-12-24T16:37:31.722Z,98906.68
2018-12-24T16:40:03.613Z,98904.61
2018-12-24T16:42:37.019Z,98908.40
2018-12-24T16:45:09.982Z,98913.48
2018-12-24T16:47:42.585Z,98905.72
2018-12-24T16:50:14.735Z,98905.33
2018-12-24T16:52:48.601Z,98901.20
2018-12-24T16:55:20.363Z,98895.04
2018-12-24T16:57:52.967Z,98889.47
2018-12-24T17:00:24.747Z,98891.17
2018-12-24T17:02:56.981Z,98889.55
2018-12-24T17:05:28.722Z,98890.85
2018-12-24T17:08:00.478Z,98895.74
2018-12-24T17:10:32.173Z,98891.61
2018-12-24T17:13:04.325Z,98898.60
2018-12-24T17:15:37.161Z,98891.75
2018-12-24T17:18:09.320Z,98887.49
2018-12-24T17:20:41.529Z,98892.36
2018-12-24T17:23:15.334Z,98908.23
2018-12-24T17:25:47.352Z,98916.11
2018-12-24T17:28:19.297Z,98918.32
2018-12-24T17:30:51.554Z,98914.74
2018-12-24T17:33:23.689Z,98916.62
2018-12-24T17:35:55.809Z,98920.67
2018-12-24T17:38:28.224Z,98928.34
2018-12-24T17:41:01.144Z,98933.45
2018-12-24T17:43:33.886Z,98934.08
2018-12-24T17:46:06.131Z,98940.08
2018-12-24T17:48:38.509Z,98945.48
2018-12-24T17:51:10.536Z,98944.02
2018-12-24T17:53:42.840Z,98940.11
2018-12-24T17:56:14.922Z,98936.88
2018-12-24T17:58:47.238Z,98939.14
2018-12-24T18:01:19.145Z,98950.98
2018-12-24T18:03:51.276Z,98953.98
2018-12-24T18:06:23.537Z,98947.47
2018-12-24T18:08:55.677Z,98960.91
2018-12-24T18:11:28.320Z,98971.41
2018-12-24T18:14:00.728Z,98968.91
2018-12-24T18:16:40.461Z,98973.95
2018-12-24T18:19:12.368Z,98977.85
2018-12-24T18:21:44.683Z,98982.53
2018-12-24T18:24:17.142Z,98993.88
2018-12-24T18:26:49.288Z,98987.16
2018-12-24T18:29:21.466Z,98991.07
2018-12-24T18:31:54.674Z,98992.76
2018-12-24T18:34:27.520Z,99000.38
2018-12-24T18:37:00.312Z,99011.16
2018-12-24T18:39:32.669Z,99008.55
2018-12-24T18:42:05.139Z,99011.34
2018-12-24T18:44:38.611Z,99022.97
2018-12-24T18:47:11.940Z,99014.86
2018-12-24T18:49:44.620Z,99024.23
2018-12-24T18:52:17.455Z,99024.69
2018-12-24T18:54:50.116Z,99033.36
2018-12-24T18:57:23.175Z,99040.73
2018-12-24T18:59:56.839Z,99055.27
2018-12-24T19:02:30.697Z,99059.22
2018-12-24T19:05:04.282Z,99066.83
2018-12-24T19:07:36.664Z,99078.68
2018-12-24T19:10:10.078Z,99082.06
2018-12-24T19:12:42.735Z,99104.51
2018-12-24T19:15:15.437Z,99114.67
2018-12-24T19:17:47.955Z,99112.33
2018-12-24T19:20:20.546Z,99118.30
2018-12-24T19:22:52.809Z,99126.49
2018-12-24T19:25:25.040Z,99124.34
2018-12-24T19:27:57.476Z,99134.50
2018-12-24T19:30:30.087Z,99136.54
2018-12-24T19:33:03.331Z,99148.19
2018-12-24T19:35:35.485Z,99153.80
2018-12-24T19:38:07.779Z,99160.77
2018-12-24T19:40:40.606Z,99161.16
2018-12-24T19:43:13.095Z,99161.72
2018-12-24T19:45:49.700Z,99167.69
2018-12-24T19:48:22.777Z,99168.25
2018-12-24T19:50:55.028Z,99175.52
2018-12-24T19:53:27.163Z,99176.13
2018-12-24T19:55:59.886Z,99180.15
2018-12-24T19:58:31.925Z,99190.41
2018-12-24T20:01:04.554Z,99201.13
2018-12-24T20:03:36.840Z,99207.45
2018-12-24T20:06:09.797Z,99215.10
2018-12-24T20:08:43.160Z,99218.38
2018-12-24T20:11:15.517Z,99219.10
2018-12-24T20:13:48.032Z,99221.49
2018-12-24T20:16:20.345Z,99219.31
2018-12-24T20:18:52.578Z,99224.42
2018-12-24T20:21:25.466Z,99229.86
2018-12-24T20:23:57.348Z,99232.17
2018-12-24T20:26:29.696Z,99242.24
2018-12-24T20:29:02.134Z,99246.35
2018-12-24T20:31:35.677Z,99250.06
2018-12-24T20:34:08.256Z,99259.98
2018-12-24T20:36:42.247Z,99265.95
2018-12-24T20:39:15.183Z,99274.41
2018-12-24T20:41:48.997Z,99284.14
2018-12-24T20:44:21.762Z,99281.77
2018-12-24T20:46:54.788Z,99295.34
2018-12-24T20:49:28.112Z,99296.04
2018-12-24T20:52:04.076Z,99301.45
2018-12-24T20:54:38.677Z,99316.73
2018-12-24T20:57:12.022Z,99319.39
2018-12-24T20:59:44.426Z,99330.66
2018-12-24T21:02:16.917Z,99337.58
2018-12-24T21:04:50.184Z,99341.72
2018-12-24T21:07:23.195Z,99352.23
2018-12-24T21:09:56.912Z,99354.77
2018-12-24T21:12:30.809Z,99358.91
2018-12-24T21:15:03.903Z,99358.37
2018-12-24T21:17:37.623Z,99365.10
2018-12-24T21:20:12.385Z,99368.33
2018-12-24T21:22:46.194Z,99378.38
2018-12-24T21:25:20.792Z,99389.01
2018-12-24T21:27:54.515Z,99388.63
2018-12-24T21:30:29.893Z,99389.92
2018-12-24T21:33:06.980Z,99390.22
2018-12-24T21:35:40.455Z,99397.56
2018-12-24T21:38:15.648Z,99398.63
2018-12-24T21:40:52.345Z,99406.53
2018-12-24T21:43:27.450Z,99407.73
2018-12-24T21:46:06.787Z,99416.30
2018-12-24T21:48:43.054Z,99420.99
2018-12-24T21:51:18.351Z,99418.48
2018-12-24T21:53:51.447Z,99423.59
2018-12-24T21:56:25.378Z,99425.72
2018-12-24T21:58:57.693Z,99432.50
2018-12-24T22:01:31.352Z,99436.08
2018-12-24T22:04:07.280Z,99438.36
2018-12-24T22:06:40.897Z,99433.45
2018-12-24T22:09:14.453Z,99437.75
2018-12-24T22:11:47.311Z,99438.65
2018-12-24T22:14:21.637Z,99435.56
2018-12-24T22:16:56.949Z,99442.88
2018-12-24T22:19:31.098Z,99443.08
2018-12-24T22:22:05.877Z,99445.41
2018-12-24T22:24:40.428Z,99443.97
2018-12-24T22:27:12.840Z,99446.92
2018-12-24T22:29:47.717Z,99441.13
2018-12-24T22:32:20.804Z,99436.08
2018-12-24T22:34:55.262Z,99453.21
2018-12-24T22:37:28.704Z,99446.11
2018-12-24T22:40:06.145Z,99451.53
2018-12-24T22:42:39.784Z,99458.62
2018-12-24T22:45:14.149Z,99457.95
2018-12-24T22:47:47.716Z,99455.02
2018-12-24T22:50:22.097Z,99451.36
2018-12-24T22:52:56.205Z,99451.52
2018-12-24T22:55:29.283Z,99457.18
2018-12-24T22:58:05.332Z,99451.64
2018-12-24T23:00:48.472Z,99459.31
2018-12-24T23:03:22.031Z,99455.00
2018-12-24T23:05:56.305Z,99462.17
2018-12-24T23:08:29.434Z,99469.45
2018-12-24T23:11:02.807Z,99470.11
2018-12-24T23:13:36.538Z,99473.43
2018-12-24T23:16:09.732Z,99480.32
2018-12-24T23:18:49.437Z,99483.89
2018-12-24T23:21:16.449Z,99480.72
2018-12-24T23:23:50.216Z,99477.75
2018-12-24T23:26:25.237Z,99479.44
2018-12-24T23:29:00.099Z,99482.38
2018-12-24T23:31:35.744Z,99490.24
2018-12-24T23:34:08.360Z,99483.69
2018-12-24T23:36:40.576Z,99484.14
2018-12-24T23:39:12.789Z,99484.85
2018-12-24T23:41:44.592Z,99493.79
2018-12-24T23:44:16.941Z,99487.86
2018-12-24T23:46:52.202Z,99489.02
2018-12-24T23:49:24.530Z,99475.14
2018-12-24T23:51:57.277Z,99483.70
2018-12-24T23:54:30.126Z,99485.09
2018-12-24T23:57:02.620Z,99480.42
2018-12-24T23:59:35.282Z,99479.64
